地図

経路データ

SID SEASON NUMBER BASIN SUBBASIN NAME ISO_TIME NATURE LAT LON WMO_WIND WMO_PRES WMO_AGENCY TRACK_TYPE DIST2LAND LANDFALL IFLAG USA_AGENCY USA_ATCF_ID USA_LAT USA_LON USA_RECORD USA_STATUS USA_WIND USA_PRES USA_SSHS USA_R34_NE USA_R34_SE USA_R34_SW USA_R34_NW USA_R50_NE USA_R50_SE USA_R50_SW USA_R50_NW USA_R64_NE USA_R64_SE USA_R64_SW USA_R64_NW USA_POCI USA_ROCI USA_RMW USA_EYE TOKYO_LAT TOKYO_LON TOKYO_GRADE TOKYO_WIND TOKYO_PRES TOKYO_R50_DIR TOKYO_R50_LONG TOKYO_R50_SHORT TOKYO_R30_DIR TOKYO_R30_LONG TOKYO_R30_SHORT TOKYO_LAND CMA_LAT CMA_LON CMA_CAT CMA_WIND CMA_PRES HKO_LAT HKO_LON HKO_CAT HKO_WIND HKO_PRES NEWDELHI_LAT NEWDELHI_LON NEWDELHI_GRADE NEWDELHI_WIND NEWDELHI_PRES NEWDELHI_CI NEWDELHI_DP NEWDELHI_POCI REUNION_LAT REUNION_LON REUNION_TYPE REUNION_WIND REUNION_PRES REUNION_TNUM REUNION_CI REUNION_RMW REUNION_R34_NE REUNION_R34_SE REUNION_R34_SW REUNION_R34_NW REUNION_R50_NE REUNION_R50_SE REUNION_R50_SW REUNION_R50_NW REUNION_R64_NE REUNION_R64_SE REUNION_R64_SW REUNION_R64_NW BOM_LAT BOM_LON BOM_TYPE BOM_WIND BOM_PRES BOM_TNUM BOM_CI BOM_RMW BOM_R34_NE BOM_R34_SE BOM_R34_SW BOM_R34_NW BOM_R50_NE BOM_R50_SE BOM_R50_SW BOM_R50_NW BOM_R64_NE BOM_R64_SE BOM_R64_SW BOM_R64_NW BOM_ROCI BOM_POCI BOM_EYE BOM_POS_METHOD BOM_PRES_METHOD NADI_LAT NADI_LON NADI_CAT NADI_WIND NADI_PRES WELLINGTON_LAT WELLINGTON_LON WELLINGTON_WIND WELLINGTON_PRES DS824_LAT DS824_LON DS824_STAGE DS824_WIND DS824_PRES TD9636_LAT TD9636_LON TD9636_STAGE TD9636_WIND TD9636_PRES TD9635_LAT TD9635_LON TD9635_WIND TD9635_PRES TD9635_ROCI NEUMANN_LAT NEUMANN_LON NEUMANN_CLASS NEUMANN_WIND NEUMANN_PRES MLC_LAT MLC_LON MLC_CLASS MLC_WIND MLC_PRES USA_GUST BOM_GUST BOM_GUST_PER REUNION_GUST REUNION_GUST_PER USA_SEAHGT USA_SEARAD_NE USA_SEARAD_SE USA_SEARAD_SW USA_SEARAD_NW STORM_SPEED STORM_DIR
1973189S25154 1974 62 SP EA NOT_NAMED 1973-07-08 00:00:00 TS -25.0000 154.000 main 60 60 O________OO___ jtwc_sh SH021974 -25.0000 154.000 -1 -25.0000 154.000 TC 35 -25.0000 154.000 2 14 54
1973189S25154 1974 62 SP EA NOT_NAMED 1973-07-08 03:00:00 TS -24.5828 154.636 main 129 129 P________PP___ SH021974 -24.5457 154.644 -1 -24.5457 154.644 TC 35 -24.6571 154.620 2 14 58
1973189S25154 1974 62 SP EA NOT_NAMED 1973-07-08 06:00:00 TS -24.2536 155.290 main 207 207 O________OP___ jtwc_sh SH021974 -24.2000 155.300 -1 -24.2000 155.300 TC 35 -24.3607 155.270 2 13 68
1973189S25154 1974 62 SP EA NOT_NAMED 1973-07-08 09:00:00 TS -24.0875 155.993 main 281 281 P________PP___ SH021974 -24.0517 155.998 -1 -24.0517 155.998 TC 35 -24.1591 155.985 2 14 84
1973189S25154 1974 62 SP EA NOT_NAMED 1973-07-08 12:00:00 TS -24.1000 156.800 main 358 358 O________OO___ jtwc_sh SH021974 -24.1000 156.800 -1 -24.1000 156.800 TC 35 -24.1000 156.800 2 16 97
1973189S25154 1974 62 SP EA NOT_NAMED 1973-07-08 15:00:00 TS -24.2790 157.771 main 451 451 P________PP___ SH021974 -24.3131 157.791 -1 -24.3131 157.791 TC 35 -24.2109 157.731 2 18 104
1973189S25154 1974 62 SP EA NOT_NAMED 1973-07-08 18:00:00 TS -24.5474 158.769 main 547 546 O________OP___ jtwc_sh SH021974 -24.6000 158.800 -1 -24.6000 158.800 TC 35 -24.4422 158.706 2 18 106
1973189S25154 1974 62 SP EA NOT_NAMED 1973-07-08 21:00:00 TS -24.7855 159.674 main 635 610 P________PP___ SH021974 -24.8149 159.698 -1 -24.8149 159.698 TC 35 -24.7268 159.628 2 15 107
1973189S25154 1974 62 SP MM NOT_NAMED 1973-07-09 00:00:00 TS -25.0000 160.400 main 610 588 O________OO___ jtwc_sh SH021974 -25.0000 160.400 -1 -25.0000 160.400 TC 35 -25.0000 160.400 2 11 110
1973189S25154 1974 62 SP MM NOT_NAMED 1973-07-09 03:00:00 TS -25.1619 160.845 main 596 582 P________PP___ SH021974 -25.1568 160.825 -1 -25.1568 160.825 TC 35 -25.1721 160.884 2 7 115
1973189S25154 1974 62 SP MM NOT_NAMED 1973-07-09 06:00:00 TS -25.3086 161.137 main 583 572 O________OP___ jtwc_sh SH021974 -25.3000 161.100 -1 -25.3000 161.100 TC 35 -25.3258 161.210 2 6 120
1973189S25154 1974 62 SP MM NOT_NAMED 1973-07-09 09:00:00 TS -25.4605 161.419 main 580 568 P________PP___ SH021974 -25.4573 161.400 -1 -25.4573 161.400 TC 35 -25.4668 161.455 2 6 120
1973189S25154 1974 62 SP MM NOT_NAMED 1973-07-09 12:00:00 TS -25.6000 161.700 main 571 564 O________OO___ jtwc_sh SH021974 -25.6000 161.700 -1 -25.6000 161.700 TC 35 -25.6000 161.700 2 6 113
1973189S25154 1974 62 SP MM NOT_NAMED 1973-07-09 15:00:00 TS -25.7010 162.035 main 564 553 P________PP___ SH021974 -25.6999 162.035 -1 -25.6999 162.035 TC 35 -25.7031 162.034 2 7 108
1973189S25154 1974 62 SP MM NOT_NAMED 1973-07-09 18:00:00 TS -25.8013 162.395 main 553 540 O________OP___ jtwc_sh SH021974 -25.8000 162.400 -1 -25.8000 162.400 TC 35 -25.8039 162.385 2 7 108
1973189S25154 1974 62 SP MM NOT_NAMED 1973-07-09 21:00:00 TS -25.9225 162.775 main 540 531 P________PP___ SH021974 -25.9198 162.778 -1 -25.9198 162.778 TC 35 -25.9278 162.768 2 8 112
1973189S25154 1974 62 SP MM NOT_NAMED 1973-07-10 00:00:00 TS -26.1000 163.200 main 534 525 O________OO___ jtwc_sh SH021974 -26.1000 163.200 -1 -26.1000 163.200 TC 35 -26.1000 163.200 2 9 119
1973189S25154 1974 62 SP MM NOT_NAMED 1973-07-10 03:00:00 TS -26.3747 163.670 main 533 528 P________PP___ SH021974 -26.3773 163.670 -1 -26.3773 163.670 TC 35 -26.3694 163.670 2 11 124
1973189S25154 1974 62 SP MM NOT_NAMED 1973-07-10 06:00:00 TS -26.6946 164.198 main 539 535 O________OP___ jtwc_sh SH021974 -26.7000 164.200 -1 -26.7000 164.200 TC 35 -26.6839 164.194 2 12 123
1973189S25154 1974 62 SP MM NOT_NAMED 1973-07-10 09:00:00 TS -27.0119 164.765 main 548 548 P________PP___ SH021974 -27.0146 164.763 -1 -27.0146 164.763 TC 35 -27.0065 164.771 2 12 119
1973189S25154 1974 62 SP MM NOT_NAMED 1973-07-10 12:00:00 TS -27.3000 165.400 main 562 560 O________OO___ jtwc_sh SH021974 -27.3000 165.400 -1 -27.3000 165.400 TC 35 -27.3000 165.400 2 13 113
1973189S25154 1974 62 SP MM NOT_NAMED 1973-07-10 15:00:00 TS -27.5299 166.126 main 573 572 P________PP___ SH021974 -27.5225 166.135 -1 -27.5225 166.135 TC 35 -27.5445 166.107 2 14 108
1973189S25154 1974 62 SP MM NOT_NAMED 1973-07-10 18:00:00 TS -27.7164 166.886 main 592 592 O________OP___ jtwc_sh SH021974 -27.7000 166.900 -1 -27.7000 166.900 TC 35 -27.7491 166.857 2 14 105
1973189S25154 1974 62 SP MM NOT_NAMED 1973-07-10 21:00:00 TS -27.8879 167.621 main 618 618 P________PP___ SH021974 -27.8798 167.630 -1 -27.8798 167.630 TC 35 -27.9039 167.603 2 13 103
1973189S25154 1974 62 SP MM NOT_NAMED 1973-07-11 00:00:00 TS -28.0000 168.300 main 641 641 O________OO___ jtwc_sh SH021974 -28.0000 168.300 -1 -28.0000 168.300 TC 35 -28.0000 168.300 2 11 97
1973189S25154 1974 62 SP MM NOT_NAMED 1973-07-11 03:00:00 TS -28.0245 168.880 main 657 657 P________PP___ SH021974 -28.0296 168.880 -1 -28.0296 168.880 TC 35 -28.0143 168.881 2 10 90
1973189S25154 1974 62 SP MM NOT_NAMED 1973-07-11 06:00:00 TS -27.9925 169.402 main 674 674 O________OP___ jtwc_sh SH021974 -28.0000 169.400 -1 -28.0000 169.400 TC 35 -27.9775 169.405 2 9 84
1973189S25154 1974 62 SP MM NOT_NAMED 1973-07-11 09:00:00 TS -27.9371 169.901 main 684 684 P________PP___ SH021974 -27.9422 169.900 -1 -27.9422 169.900 TC 35 -27.9270 169.902 2 9 84
1973189S25154 1974 62 SP MM NOT_NAMED 1973-07-11 12:00:00 TS -27.9000 170.400 main 708 708 O________OO___ jtwc_sh SH021974 -27.9000 170.400 -1 -27.9000 170.400 TC 35 -27.9000 170.400 2 10 89
1973189S25154 1974 62 SP MM NOT_NAMED 1973-07-11 15:00:00 TS -27.9138 170.982 main 739 732 P________PP___ SH021974 -27.9274 170.942 -1 -27.9274 170.942 TC 35 -27.8868 171.060 2 10 94
1973189S25154 1974 62 SP MM NOT_NAMED 1973-07-11 18:00:00 TS -27.9699 171.570 main 731 726 O________OP___ jtwc_sh SH021974 -28.0000 171.500 -1 -28.0000 171.500 TC 35 -27.9096 171.709 2 11 96
1973189S25154 1974 62 SP MM NOT_NAMED 1973-07-11 21:00:00 TS -28.0177 172.168 main 726 702 P________PP___ SH021974 -28.0254 172.125 -1 -28.0254 172.125 TC 35 -28.0022 172.253 2 9 104
1973189S25154 1974 62 SP MM NOT_NAMED 1973-07-12 00:00:00 TS -28.2000 172.600 main 702 646 O________OO___ jtwc_sh SH021974 -28.2000 172.600 -1 -28.2000 172.600 TC 35 -28.2000 172.600 2 9 142
1973189S25154 1974 62 SP MM NOT_NAMED 1973-07-12 03:00:00 TS -28.7045 172.769 main 646 580 P________PP___ SH021974 -28.7119 172.792 -1 -28.7119 172.792 TC 35 -28.6898 172.723 2 11 176
1973189S25154 1974 62 SP MM NOT_NAMED 1973-07-12 06:00:00 TS -29.2871 172.678 main 580 524 O________OP___ jtwc_sh SH021974 -29.3000 172.700 -1 -29.3000 172.700 TC 35 -29.2613 172.633 2 11 196
1973189S25154 1974 62 SP MM NOT_NAMED 1973-07-12 09:00:00 TS -29.7836 172.408 main 524 503 P________PP___ SH021974 -29.7993 172.437 -1 -29.7993 172.437 TC 35 -29.7523 172.351 2 10 223
1973189S25154 1974 62 SP MM NOT_NAMED 1973-07-12 12:00:00 TS -30.0000 171.900 main 506 506 O________OO___ jtwc_sh SH021974 -30.0000 171.900 -1 -30.0000 171.900 TC 35 -30.0000 171.900 2 11 273
1973189S25154 1974 62 SP MM NOT_NAMED 1973-07-12 15:00:00 TS -29.7206 171.089 main 553 553 P________PP___ SH021974 -29.6788 171.070 -1 -29.6788 171.070 TC 35 -29.8044 171.128 2 17 299
1973189S25154 1974 62 SP MM NOT_NAMED 1973-07-12 18:00:00 TS -29.1830 170.216 main 632 632 O________OP___ jtwc_sh SH021974 -29.1000 170.200 -1 -29.1000 170.200 TC 35 -29.3491 170.249 2 18 307
1973189S25154 1974 62 SP MM NOT_NAMED 1973-07-12 21:00:00 TS -28.6575 169.468 main 710 674 P________PP___ SH021974 -28.6147 169.454 -1 -28.6147 169.454 TC 35 -28.7430 169.498 2 15 318
1973189S25154 1974 62 SP MM NOT_NAMED 1973-07-13 00:00:00 TS -28.1000 169.100 main 674 629 O________OO___ jtwc_sh SH021974 -28.1000 169.100 -1 -28.1000 169.100 TC 35 -28.1000 169.100 2 11 354
1973189S25154 1974 62 SP MM NOT_NAMED 1973-07-13 03:00:00 TS -27.5365 169.335 main 618 596 P________PP___ SH021974 -27.5496 169.356 -1 -27.5496 169.356 TC 35 -27.5105 169.291 2 14 34
1973189S25154 1974 62 SP MM NOT_NAMED 1973-07-13 06:00:00 TS -26.9737 169.947 main 596 584 O________OP___ jtwc_sh SH021974 -27.0000 170.000 -1 -27.0000 170.000 TC 35 -26.9211 169.841 2 16 47
1973189S25154 1974 62 SP MM NOT_NAMED 1973-07-13 09:00:00 TS -26.4252 170.662 main 589 587 P________PP___ SH021974 -26.4398 170.683 -1 -26.4398 170.683 TC 35 -26.3959 170.619 2 17 55
1973189S25154 1974 62 SP MM NOT_NAMED 1973-07-13 12:00:00 TS -26.0000 171.500 main 615 615 O________OO___ jtwc_sh SH021974 -26.0000 171.500 -1 -26.0000 171.500 TC 35 -26.0000 171.500 2 17 67
1973189S25154 1974 62 SP MM NOT_NAMED 1973-07-13 15:00:00 TS -25.7784 172.376 main 673 673 P________PP___ SH021974 -25.7675 172.384 -1 -25.7675 172.384 TC 35 -25.8001 172.358 2 16 80
1973189S25154 1974 62 SP MM NOT_NAMED 1973-07-13 18:00:00 TS -25.7106 173.294 main 743 743 O________OP___ jtwc_sh SH021974 -25.7000 173.300 -1 -25.7000 173.300 TC 35 -25.7318 173.283 2 16 88
1973189S25154 1974 62 SP MM NOT_NAMED 1973-07-13 21:00:00 TS -25.7290 174.194 main 823 823 P________PP___ SH021974 -25.7200 174.194 -1 -25.7200 174.194 TC 35 -25.7471 174.193 2 15 93
1973189S25154 1974 62 SP MM NOT_NAMED 1973-07-14 00:00:00 TS -25.8000 175.000 main 890 871 O________OO___ jtwc_sh SH021974 -25.8000 175.000 -1 -25.8000 175.000 TC 35 -25.8000 175.000 2 13 95
1973189S25154 1974 62 SP MM NOT_NAMED 1973-07-14 03:00:00 TS -25.8511 175.664 main 879 867 P________PP___ SH021974 -25.8496 175.675 -1 -25.8496 175.675 TC 35 -25.8542 175.641 2 11 95
1973189S25154 1974 62 SP MM NOT_NAMED 1973-07-14 06:00:00 TS -25.9015 176.180 main 867 860 O________OP___ jtwc_sh SH021974 -25.9000 176.200 -1 -25.9000 176.200 TC 35 -25.9046 176.139 2 8 97
1973189S25154 1974 62 SP MM NOT_NAMED 1973-07-14 09:00:00 TS -25.9511 176.573 main 871 866 P________PP___ SH021974 -25.9501 176.587 -1 -25.9501 176.587 TC 35 -25.9529 176.543 2 7 99
1973189S25154 1974 62 SP MM NOT_NAMED 1973-07-14 12:00:00 TS -26.0000 176.900 main 866 O________OO___ jtwc_sh SH021974 -26.0000 176.900 -1 -26.0000 176.900 TC 35 -26.0000 176.900 2 6 99

デジタル台風データ・検索

IBTrACS Databaseについて

本データベースは、米国NOAAが公開する1842年以降の世界の熱帯低気圧のベストトラックデータアーカイブInternational Best Track Archive for Climate Stewardship (IBTrACS)を、ウェブで閲覧しやすい形式に変換したものです。

最終更新日:2021-10-21